createdAt,value
2022-12-15T00:02:19.296Z,52.92
2022-12-15T00:05:05.688Z,56.10
2022-12-15T00:07:51.835Z,51.50
2022-12-15T00:10:37.972Z,56.42
2022-12-15T00:13:30.335Z,66.85
2022-12-15T00:16:16.943Z,57.22
2022-12-15T00:19:02.915Z,61.47
2022-12-15T00:21:48.780Z,58.70
2022-12-15T00:24:34.797Z,61.13
2022-12-15T00:27:21.021Z,58.60
2022-12-15T00:30:07.124Z,59.85
2022-12-15T00:32:53.258Z,54.92
2022-12-15T00:35:39.320Z,53.25
2022-12-15T00:38:29.127Z,57.72
2022-12-15T00:40:59.663Z,57.83
2022-12-15T00:43:31.733Z,55.65
2022-12-15T00:46:18.649Z,47.60
2022-12-15T00:48:46.355Z,59.15
2022-12-15T00:51:14.071Z,49.58
2022-12-15T00:54:00.228Z,53.55
2022-12-15T00:56:46.193Z,51.17
2022-12-15T00:59:32.182Z,52.33
2022-12-15T01:02:18.384Z,53.40
2022-12-15T01:05:04.484Z,47.35
2022-12-15T01:07:50.602Z,57.17
2022-12-15T01:10:37.023Z,48.35
2022-12-15T01:13:23.543Z,49.35
2022-12-15T01:16:09.747Z,52.08
2022-12-15T01:18:55.591Z,55.65
2022-12-15T01:21:24.997Z,54.35
2022-12-15T01:23:52.765Z,52.25
2022-12-15T01:26:20.051Z,51.83
2022-12-15T01:28:47.320Z,47.50
2022-12-15T01:31:15.049Z,53.10
2022-12-15T01:33:43.713Z,59.20
2022-12-15T01:36:11.548Z,51.83
2022-12-15T01:38:38.900Z,56.00
2022-12-15T01:41:08.140Z,55.47
2022-12-15T01:43:37.333Z,55.60
2022-12-15T01:46:12.188Z,56.95
2022-12-15T01:48:42.468Z,53.03
2022-12-15T01:51:13.343Z,49.88
2022-12-15T01:53:54.694Z,54.28
2022-12-15T01:56:22.533Z,53.25
2022-12-15T01:58:51.879Z,55.90
2022-12-15T02:01:19.275Z,57.20
2022-12-15T02:03:47.975Z,50.85
2022-12-15T02:06:15.973Z,55.70
2022-12-15T02:08:45.841Z,53.67
2022-12-15T02:11:31.769Z,58.08
2022-12-15T02:14:09.396Z,54.92
2022-12-15T02:16:54.736Z,57.53
2022-12-15T02:19:21.906Z,51.78
2022-12-15T02:21:57.173Z,49.70
2022-12-15T02:24:41.363Z,48.20
2022-12-15T02:27:28.460Z,51.05
2022-12-15T02:30:04.581Z,53.08
2022-12-15T02:32:48.648Z,54.42
2022-12-15T02:35:19.029Z,50.77
2022-12-15T02:37:49.780Z,53.20
2022-12-15T02:40:17.628Z,52.97
2022-12-15T02:42:46.689Z,65.20
2022-12-15T02:45:15.295Z,54.35
2022-12-15T02:47:51.799Z,49.33
2022-12-15T02:50:30.493Z,58.13
2022-12-15T02:53:03.907Z,53.60
2022-12-15T02:55:50.253Z,52.50
2022-12-15T02:58:36.172Z,56.10
2022-12-15T03:01:09.912Z,52.03
2022-12-15T03:03:38.409Z,49.67
2022-12-15T03:06:05.941Z,46.13
2022-12-15T03:08:33.294Z,55.65
2022-12-15T03:11:00.507Z,55.47
2022-12-15T03:13:28.026Z,45.67
2022-12-15T03:15:55.655Z,51.60
2022-12-15T03:18:23.001Z,46.83
2022-12-15T03:20:50.235Z,52.67
2022-12-15T03:23:17.712Z,56.38
2022-12-15T03:25:46.103Z,54.10
2022-12-15T03:28:17.499Z,53.15
2022-12-15T03:30:45.228Z,53.95
2022-12-15T03:33:17.782Z,43.72
2022-12-15T03:35:44.935Z,52.72
2022-12-15T03:38:12.061Z,49.20
2022-12-15T03:40:39.236Z,47.83
2022-12-15T03:43:06.655Z,49.40
2022-12-15T03:45:33.882Z,47.03
2022-12-15T03:48:01.083Z,47.85
2022-12-15T03:50:29.214Z,44.35
2022-12-15T03:52:58.229Z,50.25
2022-12-15T03:55:25.913Z,47.22
2022-12-15T03:57:53.405Z,49.22
2022-12-15T04:00:21.434Z,51.42
2022-12-15T04:02:50.216Z,49.35
2022-12-15T04:05:28.728Z,46.30
2022-12-15T04:07:56.556Z,42.90
2022-12-15T04:10:30.081Z,46.95
2022-12-15T04:13:11.208Z,40.80
2022-12-15T04:15:39.490Z,49.15
2022-12-15T04:18:09.845Z,48.10
2022-12-15T04:20:38.008Z,50.13
2022-12-15T04:23:07.832Z,41.75
2022-12-15T04:25:54.392Z,43.78
2022-12-15T04:28:40.320Z,45.83
2022-12-15T04:31:30.610Z,46.35
2022-12-15T04:34:21.839Z,40.42
2022-12-15T04:37:09.643Z,43.83
2022-12-15T04:39:56.643Z,45.88
2022-12-15T04:42:42.910Z,40.70
2022-12-15T04:45:30.831Z,46.90
2022-12-15T04:48:16.944Z,46.70
2022-12-15T04:51:02.933Z,43.17
2022-12-15T04:53:48.917Z,43.58
2022-12-15T04:56:34.956Z,46.33
2022-12-15T04:59:21.052Z,38.08
2022-12-15T05:02:07.672Z,38.83
2022-12-15T05:04:53.403Z,45.97
2022-12-15T05:07:39.561Z,40.58
2022-12-15T05:10:26.012Z,42.03
2022-12-15T05:13:12.090Z,40.88
2022-12-15T05:15:57.848Z,43.35
2022-12-15T05:18:43.658Z,42.85
2022-12-15T05:21:30.928Z,41.63
2022-12-15T05:24:16.914Z,46.15
2022-12-15T05:27:02.970Z,41.72
2022-12-15T05:29:48.899Z,44.85
2022-12-15T05:32:16.286Z,47.30
2022-12-15T05:34:43.464Z,44.17
2022-12-15T05:37:10.897Z,42.47
2022-12-15T05:39:38.120Z,41.17
2022-12-15T05:42:05.608Z,41.65
2022-12-15T05:44:32.788Z,36.75
2022-12-15T05:46:59.925Z,40.05
2022-12-15T05:49:27.092Z,34.55
2022-12-15T05:51:54.925Z,41.80
2022-12-15T05:54:22.061Z,39.20
2022-12-15T05:56:50.441Z,44.75
2022-12-15T05:59:17.844Z,39.90
2022-12-15T06:01:45.153Z,44.53
2022-12-15T06:04:13.641Z,52.00
2022-12-15T06:06:41.335Z,46.97
2022-12-15T06:09:08.512Z,43.53
2022-12-15T06:11:35.716Z,44.33
2022-12-15T06:14:02.851Z,37.58
2022-12-15T06:16:30.373Z,46.38
2022-12-15T06:18:59.076Z,38.90
2022-12-15T06:21:27.964Z,44.08
2022-12-15T06:23:56.297Z,39.67
2022-12-15T06:26:25.490Z,45.08
2022-12-15T06:28:53.071Z,42.88
2022-12-15T06:31:25.466Z,37.53
2022-12-15T06:34:01.425Z,42.15
2022-12-15T06:36:30.830Z,44.42
2022-12-15T06:39:02.087Z,40.08
2022-12-15T06:41:30.619Z,42.28
2022-12-15T06:43:58.177Z,38.88
2022-12-15T06:46:25.908Z,47.95
2022-12-15T06:48:53.292Z,39.78
2022-12-15T06:51:20.719Z,36.90
2022-12-15T06:53:54.149Z,37.17
2022-12-15T06:56:24.431Z,41.28
2022-12-15T06:58:56.258Z,35.63
2022-12-15T07:01:24.466Z,40.92
2022-12-15T07:03:52.823Z,41.83
2022-12-15T07:06:20.355Z,43.67
2022-12-15T07:08:56.709Z,37.22
2022-12-15T07:11:24.422Z,36.05
2022-12-15T07:13:54.595Z,45.85
2022-12-15T07:16:22.920Z,37.22
2022-12-15T07:18:50.247Z,41.78
2022-12-15T07:21:17.662Z,40.17
2022-12-15T07:23:54.802Z,39.97
2022-12-15T07:26:23.644Z,39.78
2022-12-15T07:28:50.878Z,31.25
2022-12-15T07:31:18.242Z,41.33
2022-12-15T07:33:45.481Z,33.28
2022-12-15T07:36:13.266Z,41.15
2022-12-15T07:38:40.460Z,34.10
2022-12-15T07:41:08.242Z,34.55
2022-12-15T07:43:36.244Z,45.95
2022-12-15T07:46:04.930Z,39.13
2022-12-15T07:48:32.780Z,36.15
2022-12-15T07:51:08.437Z,37.75
2022-12-15T07:53:37.410Z,37.35
2022-12-15T07:56:08.988Z,41.80
2022-12-15T07:58:37.487Z,43.25
2022-12-15T08:01:06.495Z,40.35
2022-12-15T08:03:34.662Z,32.40
2022-12-15T08:06:12.672Z,36.00
2022-12-15T08:08:40.554Z,38.47
2022-12-15T08:11:08.802Z,31.90
2022-12-15T08:16:23.795Z,33.25
2022-12-15T08:18:51.196Z,36.60
2022-12-15T08:21:18.381Z,33.63
2022-12-15T08:23:45.596Z,38.67
2022-12-15T08:26:13.866Z,44.83
2022-12-15T08:28:41.480Z,34.40
2022-12-15T08:31:13.080Z,42.13
2022-12-15T08:33:40.796Z,42.10
2022-12-15T08:36:09.284Z,36.25
2022-12-15T08:38:38.501Z,34.67
2022-12-15T08:41:10.146Z,32.88
2022-12-15T08:43:42.503Z,33.70
2022-12-15T08:46:13.347Z,31.83
2022-12-15T08:48:40.662Z,36.85
2022-12-15T08:51:08.187Z,34.70
2022-12-15T08:53:35.355Z,36.17
2022-12-15T08:56:06.389Z,36.35
2022-12-15T08:58:34.177Z,38.70
2022-12-15T09:01:02.549Z,33.63
2022-12-15T09:03:30.637Z,39.97
2022-12-15T09:06:02.362Z,33.58
2022-12-15T09:08:30.974Z,34.50
2022-12-15T09:10:58.797Z,37.75
2022-12-15T09:13:26.278Z,40.03
2022-12-15T09:16:09.311Z,31.75
2022-12-15T09:18:37.347Z,34.03
2022-12-15T09:21:08.364Z,32.70
2022-12-15T09:23:36.836Z,38.75
2022-12-15T09:26:08.647Z,40.22
2022-12-15T09:28:35.912Z,38.95
2022-12-15T09:31:07.285Z,34.10
2022-12-15T09:33:35.389Z,37.97
2022-12-15T09:36:03.764Z,33.40
2022-12-15T09:38:31.284Z,32.65
2022-12-15T09:40:58.534Z,36.85
2022-12-15T09:43:35.754Z,38.67
2022-12-15T09:46:17.819Z,35.35
2022-12-15T09:48:46.045Z,34.08
2022-12-15T09:51:15.355Z,28.05
2022-12-15T09:53:54.675Z,33.85
2022-12-15T09:56:27.736Z,30.60
2022-12-15T09:59:06.138Z,33.17
2022-12-15T10:01:48.545Z,33.95
2022-12-15T10:04:15.831Z,27.13
2022-12-15T10:06:51.042Z,31.05
2022-12-15T10:09:23.039Z,26.90
2022-12-15T10:11:52.740Z,26.10
2022-12-15T10:14:36.020Z,33.35
2022-12-15T10:17:07.622Z,25.92
2022-12-15T10:19:41.455Z,32.50
2022-12-15T10:22:16.408Z,26.95
2022-12-15T10:27:55.292Z,35.28
2022-12-15T10:30:22.564Z,29.67
2022-12-15T10:32:51.582Z,32.72
2022-12-15T10:35:29.463Z,31.70
2022-12-15T10:38:01.289Z,27.05
2022-12-15T10:40:43.876Z,28.13
2022-12-15T10:43:15.943Z,28.05
2022-12-15T10:45:43.233Z,26.33
2022-12-15T10:48:19.160Z,24.45
2022-12-15T10:50:47.260Z,25.00
2022-12-15T10:53:55.976Z,27.85
2022-12-15T10:56:32.834Z,25.25
2022-12-15T10:59:24.926Z,25.60
2022-12-15T11:01:52.777Z,26.27
2022-12-15T11:04:26.200Z,26.30
2022-12-15T11:06:57.192Z,23.42
2022-12-15T11:09:35.105Z,30.05
2022-12-15T11:12:21.176Z,21.38
2022-12-15T11:14:49.717Z,25.33
2022-12-15T11:17:20.363Z,22.77
2022-12-15T11:19:47.527Z,20.83
2022-12-15T11:22:34.637Z,21.10
2022-12-15T11:25:11.035Z,24.08
2022-12-15T11:27:39.083Z,22.52
2022-12-15T11:30:20.083Z,24.98
2022-12-15T11:32:48.905Z,25.17
2022-12-15T11:35:18.437Z,23.02
2022-12-15T11:37:48.508Z,21.55
2022-12-15T11:40:32.708Z,18.75
2022-12-15T11:43:15.333Z,24.13
2022-12-15T11:45:49.373Z,19.17
2022-12-15T11:48:19.603Z,23.95
2022-12-15T11:50:51.107Z,20.77
2022-12-15T11:53:27.928Z,22.10
2022-12-15T11:56:09.057Z,25.55
2022-12-15T11:58:42.132Z,22.75
2022-12-15T12:01:14.409Z,21.27
2022-12-15T12:03:48.311Z,26.00
2022-12-15T12:06:18.768Z,17.20
2022-12-15T12:09:03.048Z,21.95
2022-12-15T12:11:41.331Z,18.58
2022-12-15T12:14:20.755Z,18.70
2022-12-15T12:17:06.391Z,16.92
2022-12-15T12:20:00.116Z,17.35
2022-12-15T12:22:30.325Z,23.17
2022-12-15T12:25:00.921Z,15.57
2022-12-15T12:27:39.553Z,16.75
2022-12-15T12:30:12.378Z,18.73
2022-12-15T12:33:00.687Z,21.27
2022-12-15T12:35:33.465Z,20.05
2022-12-15T12:38:03.958Z,17.45
2022-12-15T12:40:43.893Z,17.73
2022-12-15T12:43:24.102Z,16.30
2022-12-15T12:45:54.692Z,19.67
2022-12-15T12:48:21.809Z,20.85
2022-12-15T12:50:50.635Z,18.90
2022-12-15T12:53:26.228Z,17.52
2022-12-15T12:55:54.178Z,21.10
2022-12-15T12:58:50.797Z,17.50
2022-12-15T13:01:20.229Z,18.17
2022-12-15T13:04:06.647Z,19.40
2022-12-15T13:06:36.659Z,18.20
2022-12-15T13:09:19.351Z,19.35
2022-12-15T13:11:46.558Z,20.25
2022-12-15T13:14:24.158Z,19.80
2022-12-15T13:17:25.049Z,23.70
2022-12-15T13:19:59.669Z,23.85
2022-12-15T13:22:37.305Z,23.27
2022-12-15T13:25:24.765Z,25.58
2022-12-15T13:27:52.641Z,20.70
2022-12-15T13:30:19.848Z,21.38
2022-12-15T13:32:48.064Z,21.52
2022-12-15T13:35:22.989Z,25.55
2022-12-15T13:37:53.226Z,27.45
2022-12-15T13:40:24.235Z,24.90
2022-12-15T13:43:08.920Z,22.88
2022-12-15T13:45:53.484Z,20.98
2022-12-15T13:48:25.109Z,22.08
2022-12-15T13:50:56.758Z,27.90
2022-12-15T13:53:26.060Z,26.27
2022-12-15T13:55:55.081Z,21.48
2022-12-15T13:58:23.867Z,27.15
2022-12-15T14:00:55.576Z,24.35
2022-12-15T14:03:23.633Z,28.63
2022-12-15T14:05:54.934Z,24.40
2022-12-15T14:08:23.812Z,34.20
2022-12-15T14:10:52.594Z,28.08
2022-12-15T14:13:35.568Z,38.05
2022-12-15T14:16:15.121Z,43.50
2022-12-15T14:18:43.216Z,31.92
2022-12-15T14:21:22.021Z,44.40
2022-12-15T14:24:28.511Z,39.25
2022-12-15T14:26:42.057Z,36.08
2022-12-15T14:29:11.945Z,63.92
2022-12-15T14:31:40.616Z,52.72
2022-12-15T14:34:11.696Z,40.70
2022-12-15T14:36:40.460Z,33.15
2022-12-15T14:39:13.268Z,40.80
2022-12-15T14:41:44.577Z,40.72
2022-12-15T14:44:36.885Z,39.78
2022-12-15T14:47:06.483Z,40.83
2022-12-15T14:49:43.846Z,41.40
2022-12-15T14:52:29.408Z,45.03
2022-12-15T14:54:58.089Z,41.25
2022-12-15T14:57:26.896Z,41.97
2022-12-15T14:59:54.459Z,36.58
2022-12-15T15:02:29.484Z,43.35
2022-12-15T15:05:05.232Z,42.42
2022-12-15T15:07:33.438Z,48.55
2022-12-15T15:10:01.464Z,44.38
2022-12-15T15:12:47.613Z,47.70
2022-12-15T15:15:18.672Z,37.20
2022-12-15T15:17:53.578Z,38.22
2022-12-15T15:23:03.056Z,36.03
2022-12-15T15:25:31.570Z,36.25
2022-12-15T15:28:03.702Z,40.72
2022-12-15T15:30:41.492Z,42.10
2022-12-15T15:33:09.077Z,37.25
2022-12-15T15:35:36.348Z,37.80
2022-12-15T15:38:17.533Z,43.20
2022-12-15T15:40:49.614Z,41.63
2022-12-15T15:43:17.905Z,37.22
2022-12-15T15:45:45.356Z,43.10
2022-12-15T15:48:18.487Z,38.30
2022-12-15T15:50:47.247Z,43.20
2022-12-15T15:53:19.770Z,39.88
2022-12-15T15:55:48.319Z,47.67
2022-12-15T15:58:15.653Z,46.88
2022-12-15T16:00:42.960Z,39.22
2022-12-15T16:03:10.795Z,47.25
2022-12-15T16:05:38.575Z,43.72
2022-12-15T16:08:06.027Z,48.45
2022-12-15T16:10:33.277Z,44.58
2022-12-15T16:13:02.104Z,43.17
2022-12-15T16:15:34.370Z,54.17
2022-12-15T16:18:01.633Z,43.72
2022-12-15T16:20:29.744Z,41.58
2022-12-15T16:23:01.424Z,39.65
2022-12-15T16:25:30.020Z,41.90
2022-12-15T16:28:00.576Z,47.72
2022-12-15T16:30:30.940Z,52.50
2022-12-15T16:32:58.382Z,56.47
2022-12-15T16:35:25.763Z,55.42
2022-12-15T16:37:53.110Z,54.25
2022-12-15T16:40:24.745Z,46.20
2022-12-15T16:42:56.539Z,42.40
2022-12-15T16:45:24.799Z,45.42
2022-12-15T16:47:52.513Z,46.72
2022-12-15T16:50:22.955Z,47.05
2022-12-15T16:52:51.211Z,45.75
2022-12-15T16:55:40.239Z,46.83
2022-12-15T16:58:07.840Z,53.65
2022-12-15T17:00:35.694Z,52.30
2022-12-15T17:03:03.633Z,53.38
2022-12-15T17:05:35.013Z,46.28
2022-12-15T17:08:05.091Z,52.17
2022-12-15T17:10:32.741Z,45.97
2022-12-15T17:13:33.640Z,53.40
2022-12-15T17:16:04.469Z,47.90
2022-12-15T17:18:32.096Z,49.90
2022-12-15T17:21:13.712Z,44.80
2022-12-15T17:23:41.877Z,47.20
2022-12-15T17:26:25.805Z,44.20
2022-12-15T17:28:56.188Z,45.20
2022-12-15T17:31:27.640Z,44.85
2022-12-15T17:33:57.431Z,47.22
2022-12-15T17:36:26.102Z,49.40
2022-12-15T17:38:58.114Z,57.97
2022-12-15T17:41:50.671Z,43.53
2022-12-15T17:44:37.909Z,45.85
2022-12-15T17:47:07.277Z,46.67
2022-12-15T17:49:37.633Z,42.53
2022-12-15T17:52:07.911Z,47.50
2022-12-15T17:54:35.684Z,46.20
2022-12-15T17:57:02.821Z,44.85
2022-12-15T17:59:32.223Z,49.10
2022-12-15T18:01:59.618Z,47.08
2022-12-15T18:04:27.000Z,46.00
2022-12-15T18:06:59.672Z,52.45
2022-12-15T18:09:29.350Z,57.58
2022-12-15T18:11:56.554Z,46.78
2022-12-15T18:14:23.784Z,47.10
2022-12-15T18:16:51.174Z,48.75
2022-12-15T18:19:18.392Z,48.28
2022-12-15T18:21:45.609Z,48.30
2022-12-15T18:24:17.217Z,45.50
2022-12-15T18:26:44.625Z,50.45
2022-12-15T18:29:17.617Z,52.95
2022-12-15T18:31:46.900Z,50.08
2022-12-15T18:34:15.371Z,52.17
2022-12-15T18:36:42.990Z,53.20
2022-12-15T18:39:18.204Z,53.50
2022-12-15T18:41:45.543Z,52.80
2022-12-15T18:44:21.770Z,51.80
2022-12-15T18:46:49.069Z,49.33
2022-12-15T18:49:17.955Z,55.70
2022-12-15T18:51:46.461Z,52.17
2022-12-15T18:54:24.351Z,56.05
2022-12-15T18:56:51.916Z,49.92
2022-12-15T18:59:19.561Z,52.03
2022-12-15T19:01:48.040Z,57.97
2022-12-15T19:04:15.659Z,55.00
2022-12-15T19:06:43.171Z,52.60
2022-12-15T19:09:13.563Z,51.30
2022-12-15T19:11:41.025Z,49.42
2022-12-15T19:14:36.487Z,51.42
2022-12-15T19:17:22.457Z,54.97
2022-12-15T19:20:08.478Z,53.05
2022-12-15T19:22:35.604Z,53.08
2022-12-15T19:25:05.959Z,57.90
2022-12-15T19:27:33.127Z,53.50
2022-12-15T19:30:00.295Z,50.75
2022-12-15T19:32:27.557Z,55.40
2022-12-15T19:34:54.766Z,50.58
2022-12-15T19:37:21.900Z,58.22
2022-12-15T19:39:49.099Z,56.45
2022-12-15T19:42:21.048Z,49.45
2022-12-15T19:44:48.451Z,55.42
2022-12-15T19:47:16.224Z,54.80
2022-12-15T19:49:44.031Z,51.28
2022-12-15T19:52:14.208Z,55.28
2022-12-15T19:54:41.798Z,52.75
2022-12-15T19:57:13.260Z,52.67
2022-12-15T19:59:40.624Z,59.05
2022-12-15T20:02:09.878Z,60.38
2022-12-15T20:04:37.638Z,56.25
2022-12-15T20:07:05.279Z,51.83
2022-12-15T20:09:33.073Z,57.88
2022-12-15T20:12:00.290Z,57.22
2022-12-15T20:14:28.042Z,52.83
2022-12-15T20:16:55.314Z,53.85
2022-12-15T20:19:22.537Z,57.13
2022-12-15T20:21:49.685Z,53.85
2022-12-15T20:24:22.815Z,61.97
2022-12-15T20:26:50.367Z,56.53
2022-12-15T20:29:22.507Z,55.05
2022-12-15T20:31:49.725Z,53.38
2022-12-15T20:34:16.956Z,61.92
2022-12-15T20:36:44.193Z,65.53
2022-12-15T20:39:20.748Z,59.53
2022-12-15T20:41:48.356Z,59.53
2022-12-15T20:44:15.564Z,56.05
2022-12-15T20:46:43.627Z,64.47
2022-12-15T20:49:18.662Z,55.83
2022-12-15T20:51:46.956Z,66.25
2022-12-15T20:54:16.073Z,64.20
2022-12-15T20:56:43.275Z,59.13
2022-12-15T20:59:10.707Z,76.00
2022-12-15T21:01:39.206Z,62.88
2022-12-15T21:04:21.735Z,59.78
2022-12-15T21:06:54.401Z,62.80
2022-12-15T21:09:22.106Z,65.55
2022-12-15T21:11:51.705Z,65.47
2022-12-15T21:14:20.530Z,65.05
2022-12-15T21:16:47.793Z,69.28
2022-12-15T21:20:06.395Z,59.50
2022-12-15T21:22:02.773Z,66.22
2022-12-15T21:24:30.735Z,69.53
2022-12-15T21:26:57.894Z,74.15
2022-12-15T21:29:26.399Z,63.80
2022-12-15T21:31:53.767Z,66.10
2022-12-15T21:34:21.259Z,64.68
2022-12-15T21:36:51.886Z,74.25
2022-12-15T21:39:29.635Z,70.80
2022-12-15T21:41:58.372Z,61.45
2022-12-15T21:44:25.900Z,68.78
2022-12-15T21:46:53.048Z,69.85
2022-12-15T21:49:22.078Z,68.82
2022-12-15T21:51:52.409Z,64.55
2022-12-15T21:54:27.429Z,73.25
2022-12-15T21:56:57.792Z,68.90
2022-12-15T21:59:27.622Z,70.43
2022-12-15T22:01:56.142Z,65.15
2022-12-15T22:04:31.029Z,66.53
2022-12-15T22:06:58.292Z,66.72
2022-12-15T22:09:25.474Z,65.55
2022-12-15T22:11:54.012Z,65.35
2022-12-15T22:14:34.527Z,75.70
2022-12-15T22:17:09.587Z,66.82
2022-12-15T22:19:36.744Z,62.80
2022-12-15T22:22:03.884Z,64.70
2022-12-15T22:24:31.020Z,71.70
2022-12-15T22:26:58.454Z,72.25
2022-12-15T22:29:26.723Z,65.43
2022-12-15T22:31:55.035Z,69.35
2022-12-15T22:34:23.791Z,67.32
2022-12-15T22:36:51.803Z,64.85
2022-12-15T22:39:19.722Z,65.88
2022-12-15T22:41:48.254Z,68.20
2022-12-15T22:44:26.066Z,73.60
2022-12-15T22:46:54.857Z,65.93
2022-12-15T22:49:22.976Z,68.28
2022-12-15T22:51:50.382Z,78.53
2022-12-15T22:54:17.931Z,63.58
2022-12-15T22:56:45.466Z,70.65
2022-12-15T22:59:18.377Z,83.68
2022-12-15T23:01:46.075Z,77.60
2022-12-15T23:04:14.364Z,74.95
2022-12-15T23:06:41.841Z,83.40
2022-12-15T23:09:09.237Z,77.90
2022-12-15T23:11:39.413Z,76.38
2022-12-15T23:14:07.958Z,74.03
2022-12-15T23:16:35.260Z,68.75
2022-12-15T23:19:02.871Z,82.30
2022-12-15T23:21:30.565Z,78.65
2022-12-15T23:23:57.858Z,81.25
2022-12-15T23:26:26.024Z,76.40
2022-12-15T23:28:53.862Z,76.57
2022-12-15T23:31:22.692Z,79.57
2022-12-15T23:33:52.202Z,73.63
2022-12-15T23:36:19.765Z,77.13
2022-12-15T23:38:47.020Z,72.90
2022-12-15T23:41:18.554Z,76.85
2022-12-15T23:43:45.739Z,78.90
2022-12-15T23:46:13.121Z,76.35
2022-12-15T23:48:42.025Z,73.22
2022-12-15T23:51:13.666Z,76.78
2022-12-15T23:53:41.376Z,78.50
2022-12-15T23:56:22.063Z,77.80
2022-12-15T23:58:54.520Z,83.55
